Time;durP1;ratioP1;P1;durP2;ratioP2;P2;SDS_P1;SDS_P2;PMS_P1;PMS_P2;Temp;Humidity;BMP_temperature;BMP_pressure;BME280_temperature;BME280_humidity;BME280_pressure;Samples;Min_cycle;Max_cycle;Signal;HPM_P1;HPM_P2
2024/04/04 00:02:07;;;;;;;8.65;1.33;;;10.30;99.90;;;;;;5053630;28;20025;-56
2024/04/04 00:04:33;;;;;;;8.45;1.27;;;10.20;99.90;;;;;;5052886;28;20025;-41
2024/04/04 00:06:58;;;;;;;7.15;0.98;;;10.10;99.90;;;;;;5052380;28;20029;-40
2024/04/04 00:09:24;;;;;;;12.63;2.05;;;10.10;99.90;;;;;;5053065;28;20072;-39
2024/04/04 00:11:53;;;;;;;4.97;1.20;;;10.20;99.90;;;;;;5051973;28;20036;-39
2024/04/04 00:14:19;;;;;;;5.78;0.68;;;10.10;99.90;;;;;;5052396;28;20035;-41
2024/04/04 00:16:44;;;;;;;11.20;1.08;;;10.10;99.90;;;;;;5053048;28;20536;-41
2024/04/04 00:19:10;;;;;;;6.72;1.10;;;10.10;99.90;;;;;;5051272;28;20111;-38
2024/04/04 00:21:36;;;;;;;7.65;1.58;;;10.00;99.90;;;;;;5035192;28;20060;-39
2024/04/04 00:24:02;;;;;;;11.57;0.90;;;10.00;99.90;;;;;;5033529;28;20458;-39
2024/04/04 00:26:27;;;;;;;5.05;1.08;;;10.00;99.90;;;;;;5040095;28;20520;-45
2024/04/04 00:28:53;;;;;;;12.05;1.23;;;10.00;99.90;;;;;;5052837;28;20025;-40
2024/04/04 00:31:19;;;;;;;11.80;1.63;;;10.00;99.90;;;;;;5053234;28;20075;-42
2024/04/04 00:33:45;;;;;;;7.30;1.48;;;10.00;99.90;;;;;;5051158;28;20017;-40
2024/04/04 00:36:11;;;;;;;6.20;1.05;;;10.00;99.90;;;;;;5052619;28;20477;-37
2024/04/04 00:38:37;;;;;;;6.63;1.30;;;9.90;99.90;;;;;;5053080;28;20082;-38
2024/04/04 00:41:03;;;;;;;13.35;2.30;;;9.90;99.90;;;;;;5053113;28;20028;-41
2024/04/04 00:43:29;;;;;;;7.50;1.17;;;9.80;99.90;;;;;;5053090;28;20043;-38
2024/04/04 00:45:56;;;;;;;18.77;1.75;;;9.80;99.90;;;;;;5052423;28;20486;-38
2024/04/04 00:48:23;;;;;;;9.07;1.55;;;9.80;99.90;;;;;;5052056;28;20612;-39
2024/04/04 00:50:48;;;;;;;9.57;1.55;;;9.80;99.90;;;;;;5052778;28;20500;-37
2024/04/04 00:53:14;;;;;;;11.13;2.03;;;9.80;99.90;;;;;;5052624;28;20025;-37
2024/04/04 00:55:40;;;;;;;11.45;1.38;;;9.80;99.90;;;;;;5052229;28;20444;-38
2024/04/04 00:58:05;;;;;;;8.57;1.10;;;9.80;99.90;;;;;;5052631;28;20056;-37
2024/04/04 01:00:31;;;;;;;4.00;1.20;;;9.80;99.90;;;;;;5052474;28;20456;-39
2024/04/04 01:02:57;;;;;;;2.95;1.08;;;9.90;99.90;;;;;;5052125;28;20025;-43
2024/04/04 01:05:22;;;;;;;3.10;0.82;;;9.90;99.90;;;;;;5051695;28;20024;-38
2024/04/04 01:07:49;;;;;;;10.23;1.83;;;9.90;99.90;;;;;;5052251;28;20039;-38
2024/04/04 01:10:16;;;;;;;7.95;1.00;;;10.00;99.90;;;;;;5052324;28;20108;-39
2024/04/04 01:12:42;;;;;;;6.40;1.25;;;10.00;99.90;;;;;;5051851;28;20017;-39
2024/04/04 01:15:08;;;;;;;4.72;1.27;;;10.00;99.90;;;;;;5034565;28;20097;-41
2024/04/04 01:17:34;;;;;;;15.48;1.65;;;10.10;99.90;;;;;;5031850;28;20471;-38
2024/04/04 01:20:00;;;;;;;8.38;1.58;;;10.10;99.90;;;;;;5041455;28;20025;-38
2024/04/04 01:22:26;;;;;;;11.10;1.20;;;10.10;99.90;;;;;;5052291;28;20116;-40
2024/04/04 01:24:52;;;;;;;4.20;0.90;;;10.10;99.90;;;;;;5052068;28;20517;-41
2024/04/04 01:27:17;;;;;;;4.53;1.00;;;10.10;99.90;;;;;;5051925;28;20398;-38
2024/04/04 01:29:43;;;;;;;4.75;1.13;;;10.10;99.90;;;;;;5052488;28;20060;-41
2024/04/04 01:32:09;;;;;;;5.55;1.00;;;10.10;99.90;;;;;;5051964;28;20472;-39
2024/04/04 01:34:34;;;;;;;4.10;0.80;;;10.10;99.90;;;;;;5051844;28;20516;-42
2024/04/04 01:37:00;;;;;;;5.90;1.20;;;10.10;99.90;;;;;;5052062;28;20029;-38
2024/04/04 01:39:26;;;;;;;8.02;1.55;;;10.10;99.90;;;;;;5052012;28;20454;-37
2024/04/04 01:41:54;;;;;;;10.98;1.40;;;10.10;99.90;;;;;;5051737;28;20033;-39
2024/04/04 01:44:20;;;;;;;;;;;10.10;99.90;;;;;;5051105;28;20025;-40
2024/04/04 01:46:46;;;;;;;5.53;1.08;;;10.10;99.90;;;;;;5050758;28;19928;-42
2024/04/04 01:49:11;;;;;;;3.22;0.82;;;10.10;99.90;;;;;;5049851;28;20029;-39
2024/04/04 01:51:37;;;;;;;9.05;1.52;;;10.10;99.90;;;;;;5050448;28;20033;-38
2024/04/04 01:54:05;;;;;;;11.80;1.17;;;10.10;99.90;;;;;;5051514;28;20033;-40
2024/04/04 01:56:30;;;;;;;6.43;1.35;;;10.10;99.90;;;;;;5051822;28;20047;-38
2024/04/04 01:58:56;;;;;;;5.10;2.10;;;10.00;99.90;;;;;;5051866;28;20021;-38
2024/04/04 02:01:22;;;;;;;5.40;1.05;;;10.00;99.90;;;;;;5050671;28;20032;-37
2024/04/04 02:03:47;;;;;;;7.43;1.20;;;10.00;99.90;;;;;;5051657;28;20040;-39
2024/04/04 02:06:13;;;;;;;10.35;2.00;;;10.10;99.90;;;;;;5051696;28;20021;-39
2024/04/04 02:08:39;;;;;;;4.75;2.08;;;10.10;99.90;;;;;;5051832;28;20095;-41
2024/04/04 02:11:05;;;;;;;3.25;1.10;;;10.10;99.90;;;;;;5051512;28;20381;-44
2024/04/04 02:13:32;;;;;;;3.17;0.95;;;10.10;99.90;;;;;;5051623;28;20166;-38
2024/04/04 02:15:58;;;;;;;19.77;2.13;;;10.10;99.90;;;;;;5051780;28;20025;-43
2024/04/04 02:18:24;;;;;;;3.13;1.40;;;10.10;99.90;;;;;;5051441;28;20041;-41
2024/04/04 02:20:49;;;;;;;5.93;1.38;;;10.20;99.90;;;;;;5051483;28;20029;-38
2024/04/04 02:23:15;;;;;;;11.35;2.70;;;10.20;99.90;;;;;;5051683;28;20028;-41
2024/04/04 02:25:41;;;;;;;4.78;1.55;;;10.30;99.90;;;;;;5051635;28;20060;-38
2024/04/04 02:28:09;;;;;;;9.87;2.50;;;10.30;99.90;;;;;;5050350;28;20489;-41
2024/04/04 02:30:36;;;;;;;2.40;1.25;;;10.30;99.90;;;;;;5058414;28;20028;-39
2024/04/04 02:33:02;;;;;;;16.48;1.77;;;10.30;99.90;;;;;;5065965;28;20051;-38
2024/04/04 02:35:28;;;;;;;7.65;1.70;;;10.30;99.90;;;;;;5056871;28;20407;-38
2024/04/04 02:37:53;;;;;;;7.70;1.30;;;10.30;99.90;;;;;;5069045;28;20040;-37
2024/04/04 02:40:19;;;;;;;3.92;1.30;;;10.30;99.90;;;;;;5054995;28;20480;-38
2024/04/04 02:42:44;;;;;;;6.95;2.13;;;10.30;99.90;;;;;;5055123;28;20028;-37
2024/04/04 02:45:10;;;;;;;6.13;1.50;;;10.30;99.90;;;;;;5054974;28;20040;-37
2024/04/04 02:47:36;;;;;;;9.40;1.50;;;10.30;99.90;;;;;;5054242;28;20171;-38
2024/04/04 02:50:03;;;;;;;9.82;1.58;;;10.30;99.90;;;;;;5055032;28;20025;-37
2024/04/04 02:52:28;;;;;;;6.35;1.88;;;10.20;99.90;;;;;;5055055;28;20029;-36
2024/04/04 02:54:54;;;;;;;13.00;1.67;;;10.20;99.90;;;;;;5053607;28;20358;-39
2024/04/04 02:57:20;;;;;;;5.30;1.38;;;10.30;99.90;;;;;;5055140;28;20126;-38
2024/04/04 02:59:45;;;;;;;4.75;1.20;;;10.20;99.90;;;;;;5054707;28;20477;-39
2024/04/04 03:02:11;;;;;;;4.80;1.25;;;10.30;99.90;;;;;;5053107;28;20056;-40
2024/04/04 03:04:37;;;;;;;11.18;1.48;;;10.30;99.90;;;;;;5052916;28;20125;-40
2024/04/04 03:07:03;;;;;;;10.02;1.48;;;10.20;99.90;;;;;;5054587;28;20047;-38
2024/04/04 03:09:29;;;;;;;7.43;1.15;;;10.30;99.90;;;;;;5040570;28;20043;-37
2024/04/04 03:11:55;;;;;;;2.75;0.85;;;10.20;99.90;;;;;;5054353;28;20112;-52
2024/04/04 03:14:20;;;;;;;3.47;0.95;;;10.30;99.90;;;;;;5054480;28;20613;-53
2024/04/04 03:16:46;;;;;;;6.25;1.35;;;10.30;99.90;;;;;;5054378;28;20424;-52
2024/04/04 03:19:12;;;;;;;5.85;0.93;;;10.30;99.90;;;;;;5053902;28;20481;-53
2024/04/04 03:21:37;;;;;;;9.15;2.03;;;10.30;99.90;;;;;;5036068;28;20026;-53
2024/04/04 03:24:03;;;;;;;3.85;1.08;;;10.30;99.90;;;;;;5034642;28;20482;-53
2024/04/04 03:26:29;;;;;;;7.65;1.90;;;10.30;99.90;;;;;;5034196;28;20037;-39
2024/04/04 03:28:55;;;;;;;7.50;1.80;;;10.30;99.90;;;;;;5034457;28;20053;-37
2024/04/04 03:31:21;;;;;;;10.73;1.27;;;10.30;99.90;;;;;;5034446;28;20045;-36
2024/04/04 03:33:47;;;;;;;4.70;1.30;;;10.30;99.90;;;;;;5041805;28;20053;-53
2024/04/04 03:36:12;;;;;;;6.57;1.10;;;10.30;99.90;;;;;;5053549;28;20053;-50
2024/04/04 03:38:38;;;;;;;6.20;1.10;;;10.30;99.90;;;;;;5053865;28;20456;-52
2024/04/04 03:41:04;;;;;;;1.60;0.90;;;10.20;99.90;;;;;;5053339;28;20044;-53
2024/04/04 03:43:31;;;;;;;3.93;1.27;;;10.30;99.90;;;;;;5054088;28;20036;-53
2024/04/04 03:46:01;;;;;;;3.55;0.82;;;10.20;99.90;;;;;;5053870;28;20413;-53
2024/04/04 03:48:26;;;;;;;5.18;0.80;;;10.30;99.90;;;;;;5053224;28;20477;-53
2024/04/04 03:50:52;;;;;;;2.17;1.20;;;10.30;99.90;;;;;;5053343;28;20021;-52
2024/04/04 03:53:18;;;;;;;2.70;0.90;;;10.30;99.90;;;;;;5033619;28;20032;-57
2024/04/04 03:55:43;;;;;;;10.95;1.15;;;10.30;99.90;;;;;;5033836;28;20393;-53
2024/04/04 03:58:09;;;;;;;8.55;1.33;;;10.30;99.90;;;;;;5032579;28;20102;-40
2024/04/04 04:00:35;;;;;;;2.05;1.40;;;10.40;99.90;;;;;;5043660;28;20032;-37
2024/04/04 04:03:01;;;;;;;10.05;1.63;;;10.30;99.90;;;;;;5052198;28;20473;-41
2024/04/04 04:05:26;;;;;;;3.30;1.38;;;10.30;99.90;;;;;;5053059;28;20487;-36
2024/04/04 04:07:52;;;;;;;6.53;1.75;;;10.40;99.90;;;;;;5053099;28;20040;-37
2024/04/04 04:10:18;;;;;;;3.95;1.48;;;10.30;99.90;;;;;;5052233;28;20052;-35
2024/04/04 04:12:44;;;;;;;5.07;1.40;;;10.30;99.90;;;;;;5053344;28;20033;-39
2024/04/04 04:15:10;;;;;;;9.10;1.90;;;10.30;99.90;;;;;;5052672;28;20024;-36
2024/04/04 04:17:36;;;;;;;5.47;1.70;;;10.30;99.90;;;;;;5051302;28;20025;-35
2024/04/04 04:21:16;;;;;;;4.60;1.67;;;10.30;99.90;;;;;;5052593;28;20048;-36
2024/04/04 04:22:47;;;;;;;5.47;2.92;;;10.20;99.90;;;;;;5033175;28;20371;-35
2024/04/04 04:25:12;;;;;;;2.53;2.03;;;10.20;99.90;;;;;;5033191;28;20045;-35
2024/04/04 04:27:38;;;;;;;8.50;2.75;;;10.20;99.90;;;;;;5036670;28;20037;-35
2024/04/04 04:30:05;;;;;;;4.05;2.83;;;10.30;99.90;;;;;;5052566;28;20413;-37
2024/04/04 04:32:31;;;;;;;2.83;2.40;;;10.30;99.90;;;;;;5053261;28;20512;-35
2024/04/04 04:34:56;;;;;;;3.47;2.28;;;10.30;99.90;;;;;;5052187;28;20025;-38
2024/04/04 04:37:22;;;;;;;7.43;2.40;;;10.30;99.90;;;;;;5052359;28;20032;-35
2024/04/04 04:39:48;;;;;;;4.85;2.75;;;10.30;99.90;;;;;;5033786;28;20112;-37
2024/04/04 04:42:13;;;;;;;7.78;2.92;;;10.30;99.90;;;;;;5033023;28;20505;-36
2024/04/04 04:44:39;;;;;;;3.67;2.90;;;10.30;99.90;;;;;;5031887;28;20037;-53
2024/04/04 04:47:04;;;;;;;5.03;3.20;;;10.40;99.90;;;;;;5048886;28;20040;-46
2024/04/04 04:49:32;;;;;;;4.95;3.08;;;10.40;99.90;;;;;;5051784;28;20029;-35
2024/04/04 04:51:57;;;;;;;5.95;3.42;;;10.40;99.90;;;;;;5051734;28;20029;-36
2024/04/04 04:54:23;;;;;;;5.53;3.10;;;10.40;99.90;;;;;;5051998;28;20048;-35
2024/04/04 04:56:48;;;;;;;3.05;2.75;;;10.40;99.90;;;;;;5052583;28;20138;-36
2024/04/04 04:59:14;;;;;;;7.10;3.30;;;10.40;99.90;;;;;;5050991;28;20076;-35
2024/04/04 05:01:40;;;;;;;4.53;3.28;;;10.50;99.90;;;;;;5052486;28;20029;-35
2024/04/04 05:04:05;;;;;;;4.25;3.15;;;10.50;99.90;;;;;;5051975;28;20367;-35
2024/04/04 05:06:31;;;;;;;4.05;3.22;;;10.50;99.90;;;;;;5051660;28;20393;-35
2024/04/04 05:08:56;;;;;;;5.47;3.38;;;10.50;99.90;;;;;;5038445;28;20436;-36
2024/04/04 05:11:22;;;;;;;4.03;3.03;;;10.50;99.90;;;;;;5046755;28;20033;-36
2024/04/04 05:13:48;;;;;;;4.72;3.22;;;10.60;99.90;;;;;;5044019;28;20026;-36
2024/04/04 05:16:14;;;;;;;4.25;3.20;;;10.60;99.90;;;;;;5044587;28;20359;-37
2024/04/04 05:18:39;;;;;;;7.15;4.22;;;10.60;99.90;;;;;;5052034;28;20049;-37
2024/04/04 05:21:05;;;;;;;4.57;3.35;;;10.60;99.90;;;;;;5052014;28;20421;-36
2024/04/04 05:23:31;;;;;;;5.13;3.88;;;10.60;99.90;;;;;;5051543;28;20021;-37
2024/04/04 05:25:57;;;;;;;4.50;3.55;;;10.70;99.90;;;;;;5042231;28;20045;-36
2024/04/04 05:28:26;;;;;;;3.83;3.25;;;10.70;99.90;;;;;;5032261;28;20597;-36
2024/04/04 05:30:56;;;;;;;4.82;4.00;;;10.70;99.90;;;;;;5033756;28;20549;-36
2024/04/04 05:33:21;;;;;;;5.85;4.00;;;10.70;99.90;;;;;;5037585;28;20577;-37
2024/04/04 05:35:47;;;;;;;4.68;3.85;;;10.80;99.90;;;;;;5051402;28;20182;-36
2024/04/04 05:38:13;;;;;;;6.95;3.45;;;10.80;99.90;;;;;;5052031;28;20025;-36
2024/04/04 05:40:39;;;;;;;6.57;3.42;;;10.70;99.90;;;;;;5052109;28;20028;-37
2024/04/04 05:43:05;;;;;;;6.60;3.22;;;10.70;99.90;;;;;;5051724;28;20025;-36
2024/04/04 05:45:30;;;;;;;11.10;3.33;;;10.80;99.90;;;;;;5051655;28;20079;-37
2024/04/04 05:47:56;;;;;;;7.28;3.05;;;10.80;99.90;;;;;;5051284;28;20496;-36
2024/04/04 05:50:22;;;;;;;2.80;2.60;;;10.80;99.90;;;;;;5051415;28;20045;-37
2024/04/04 05:52:47;;;;;;;5.38;3.10;;;10.80;99.90;;;;;;5039889;28;20422;-37
2024/04/04 05:55:13;;;;;;;5.03;2.83;;;10.80;99.90;;;;;;5041010;28;20517;-52
2024/04/04 05:57:39;;;;;;;3.85;2.80;;;10.80;99.90;;;;;;5051151;28;20068;-52
2024/04/04 06:00:05;;;;;;;5.95;3.22;;;10.80;99.90;;;;;;5048105;28;20031;-50
2024/04/04 06:02:31;;;;;;;2.97;2.20;;;10.80;99.90;;;;;;5050820;28;20477;-52
2024/04/04 06:04:57;;;;;;;10.38;2.47;;;10.90;99.90;;;;;;5052952;28;20037;-50
2024/04/04 06:07:23;;;;;;;3.60;2.55;;;10.90;99.90;;;;;;5055687;28;20544;-48
2024/04/04 06:09:48;;;;;;;5.50;2.15;;;10.90;99.90;;;;;;5039098;28;20108;-50
2024/04/04 06:12:14;;;;;;;4.30;2.80;;;11.00;99.90;;;;;;5035597;28;20082;-50
2024/04/04 06:14:40;;;;;;;6.57;2.38;;;11.00;99.90;;;;;;5044454;28;20025;-33
2024/04/04 06:17:06;;;;;;;4.50;2.78;;;11.10;99.90;;;;;;5045388;28;20026;-34
2024/04/04 06:19:31;;;;;;;3.97;2.42;;;11.10;99.90;;;;;;5047034;28;20025;-35
2024/04/04 06:21:57;;;;;;;4.32;2.55;;;11.20;99.90;;;;;;5044956;28;20025;-36
2024/04/04 06:24:23;;;;;;;4.53;2.17;;;11.20;99.90;;;;;;5054033;28;20028;-37
2024/04/04 06:26:49;;;;;;;2.50;2.22;;;11.30;99.90;;;;;;5055250;28;20051;-35
2024/04/04 06:29:19;;;;;;;8.43;2.47;;;11.30;99.90;;;;;;5055206;28;20477;-35
2024/04/04 06:31:45;;;;;;;10.52;2.20;;;11.30;99.90;;;;;;5049997;28;20055;-35
2024/04/04 06:34:12;;;;;;;5.15;2.55;;;11.40;99.90;;;;;;5053449;28;20100;-35
2024/04/04 06:36:38;;;;;;;7.20;2.40;;;11.40;99.90;;;;;;5053342;28;20520;-36
2024/04/04 06:39:04;;;;;;;8.35;2.13;;;11.40;99.90;;;;;;5038762;28;20057;-35
2024/04/04 06:41:30;;;;;;;4.93;2.33;;;11.40;99.90;;;;;;5035147;28;20415;-36
2024/04/04 06:43:56;;;;;;;2.38;2.00;;;11.40;99.90;;;;;;5050161;28;20052;-35
2024/04/04 06:46:21;;;;;;;5.78;2.35;;;11.50;99.90;;;;;;5053533;28;20060;-36
2024/04/04 06:48:47;;;;;;;3.70;1.85;;;11.40;99.90;;;;;;5054550;28;20036;-39
2024/04/04 06:51:13;;;;;;;2.63;1.98;;;11.50;99.90;;;;;;5040003;28;20029;-38
2024/04/04 06:53:40;;;;;;;9.57;2.20;;;11.50;99.90;;;;;;5054716;28;20025;-36
2024/04/04 06:56:06;;;;;;;3.25;2.38;;;11.60;99.90;;;;;;5048045;28;20109;-37
2024/04/04 06:58:32;;;;;;;3.38;1.70;;;11.60;99.90;;;;;;5034726;28;20053;-35
2024/04/04 07:00:58;;;;;;;8.20;2.58;;;11.60;99.90;;;;;;5034662;28;20079;-38
2024/04/04 07:03:25;;;;;;;4.10;2.00;;;11.60;99.90;;;;;;5037668;28;20793;-36
2024/04/04 07:05:51;;;;;;;6.30;1.80;;;11.70;99.90;;;;;;5040485;28;20028;-52
2024/04/04 07:08:17;;;;;;;9.02;1.63;;;11.70;99.90;;;;;;5034781;28;20025;-50
2024/04/04 07:10:43;;;;;;;4.57;1.73;;;11.70;99.90;;;;;;5043930;28;20482;-53
2024/04/04 07:13:09;;;;;;;4.78;2.00;;;11.70;99.90;;;;;;5054380;28;20029;-50
2024/04/04 07:15:34;;;;;;;3.90;2.40;;;11.70;99.90;;;;;;5053251;28;20029;-51
2024/04/04 07:18:03;;;;;;;3.30;1.80;;;11.80;99.90;;;;;;5054045;28;20430;-52
2024/04/04 07:20:30;;;;;;;8.95;2.38;;;11.80;99.90;;;;;;5054607;28;20381;-51
2024/04/04 07:22:56;;;;;;;6.57;2.25;;;11.80;99.90;;;;;;5054376;28;20021;-51
2024/04/04 07:25:21;;;;;;;2.15;1.85;;;11.90;99.90;;;;;;5053554;28;20148;-35
2024/04/04 07:27:47;;;;;;;6.45;1.95;;;11.90;99.90;;;;;;5054264;28;20104;-36
2024/04/04 07:30:13;;;;;;;8.85;1.98;;;11.90;99.90;;;;;;5054185;28;20040;-35
2024/04/04 07:32:38;;;;;;;4.80;1.67;;;11.90;99.90;;;;;;5053258;28;20107;-39
2024/04/04 07:35:04;;;;;;;6.97;2.03;;;11.90;99.90;;;;;;5052579;28;20484;-36
2024/04/04 07:37:30;;;;;;;5.00;1.63;;;11.90;99.90;;;;;;5054042;28;20103;-36
2024/04/04 07:39:59;;;;;;;4.28;1.30;;;11.90;99.90;;;;;;5054057;28;20466;-36
2024/04/04 07:42:25;;;;;;;5.00;1.25;;;11.90;99.90;;;;;;5046579;28;20032;-36
2024/04/04 07:44:51;;;;;;;4.82;1.67;;;11.90;99.90;;;;;;5053609;28;20032;-36
2024/04/04 07:47:16;;;;;;;5.82;1.70;;;11.90;99.90;;;;;;5053849;28;20074;-36
2024/04/04 07:49:43;;;;;;;4.53;1.83;;;11.90;99.90;;;;;;5052776;28;20028;-36
2024/04/04 07:52:09;;;;;;;7.38;1.80;;;11.90;99.90;;;;;;5052177;28;20094;-37
2024/04/04 07:54:35;;;;;;;9.02;2.55;;;11.90;99.90;;;;;;5054046;28;20446;-36
2024/04/04 07:57:00;;;;;;;2.13;1.58;;;12.00;99.90;;;;;;5052951;28;20032;-37
2024/04/04 07:59:26;;;;;;;3.55;1.85;;;12.00;99.90;;;;;;5053688;28;20032;-35
2024/04/04 08:01:53;;;;;;;13.35;3.67;;;12.00;99.90;;;;;;5052850;28;20126;-35
2024/04/04 08:04:19;;;;;;;4.13;2.22;;;12.00;99.90;;;;;;5052095;28;20536;-37
2024/04/04 08:06:45;;;;;;;6.13;2.50;;;12.00;99.90;;;;;;5053663;28;20166;-36
2024/04/04 08:09:11;;;;;;;5.13;1.98;;;12.10;99.90;;;;;;5052967;28;20025;-36
2024/04/04 08:11:37;;;;;;;4.40;2.00;;;12.10;99.90;;;;;;5053467;28;20477;-35
2024/04/04 08:14:03;;;;;;;4.80;1.45;;;12.10;99.90;;;;;;5053354;28;20031;-36
2024/04/04 08:16:29;;;;;;;7.32;2.08;;;12.20;99.90;;;;;;5049134;28;20533;-36
2024/04/04 08:18:56;;;;;;;7.78;1.63;;;12.20;99.90;;;;;;5036643;28;20025;-36
2024/04/04 08:21:21;;;;;;;4.18;1.65;;;12.20;99.90;;;;;;5053190;28;20025;-37
2024/04/04 08:23:47;;;;;;;4.57;1.58;;;12.20;99.90;;;;;;5053108;28;20028;-36
2024/04/04 08:26:12;;;;;;;5.00;1.75;;;12.20;99.90;;;;;;5052616;28;20044;-36
2024/04/04 08:28:38;;;;;;;7.57;1.50;;;12.30;99.90;;;;;;5052864;28;20090;-36
2024/04/04 08:31:06;;;;;;;11.68;2.13;;;12.30;99.90;;;;;;5052514;28;20028;-35
2024/04/04 08:33:32;;;;;;;;;;;12.40;99.90;;;;;;5053595;28;20483;-35
2024/04/04 08:35:58;;;;;;;5.72;1.63;;;12.30;99.90;;;;;;5052467;28;19953;-36
2024/04/04 08:38:24;;;;;;;12.07;1.77;;;12.30;99.90;;;;;;5052889;28;20539;-35
2024/04/04 08:40:50;;;;;;;7.57;1.70;;;12.30;99.90;;;;;;5052406;28;20028;-35
2024/04/04 08:43:18;;;;;;;12.50;1.90;;;12.40;99.90;;;;;;5052860;28;20478;-46
2024/04/04 08:45:52;;;;;;;5.07;1.77;;;12.40;99.90;;;;;;5053020;28;20025;-45
2024/04/04 08:48:20;;;;;;;4.88;1.17;;;12.40;99.90;;;;;;5052847;28;20037;-47
2024/04/04 08:50:47;;;;;;;5.25;1.38;;;12.30;99.90;;;;;;5047985;28;20089;-46
2024/04/04 08:53:15;;;;;;;4.72;1.45;;;12.40;99.90;;;;;;5052715;28;20497;-49
2024/04/04 08:55:43;;;;;;;5.03;1.13;;;12.40;99.90;;;;;;5051871;28;20036;-48
2024/04/04 08:58:11;;;;;;;;;;;12.50;99.90;;;;;;5052787;28;20021;-47
2024/04/04 09:00:37;;;;;;;2.78;1.30;;;12.60;99.90;;;;;;5052614;28;19904;-49
2024/04/04 09:03:02;;;;;;;5.95;1.35;;;12.60;99.90;;;;;;5052430;28;20400;-47
2024/04/04 09:05:28;;;;;;;4.68;1.20;;;12.60;99.90;;;;;;5051946;28;20107;-51
2024/04/04 09:07:54;;;;;;;5.97;1.10;;;12.50;99.90;;;;;;5051061;28;20040;-46
2024/04/04 09:10:19;;;;;;;2.80;1.33;;;12.50;99.90;;;;;;5052511;28;20504;-49
2024/04/04 09:12:45;;;;;;;3.15;0.88;;;12.40;99.90;;;;;;5052536;28;20074;-51
2024/04/04 09:15:11;;;;;;;1.92;0.75;;;12.40;99.90;;;;;;5050342;28;20048;-49
2024/04/04 09:17:36;;;;;;;2.58;0.82;;;12.40;99.90;;;;;;5052348;28;20025;-50
2024/04/04 09:20:02;;;;;;;4.78;1.00;;;12.30;99.90;;;;;;5050591;28;20036;-45
2024/04/04 09:22:28;;;;;;;3.10;1.13;;;12.20;99.90;;;;;;5052306;28;20511;-47
2024/04/04 09:24:59;;;;;;;7.75;1.13;;;12.20;99.90;;;;;;5051913;28;20108;-46
2024/04/04 09:27:26;;;;;;;5.20;0.65;;;12.00;99.90;;;;;;5051618;28;20111;-49
2024/04/04 09:29:52;;;;;;;5.88;0.75;;;12.00;99.90;;;;;;5047875;28;20462;-48
2024/04/04 09:32:19;;;;;;;2.85;0.77;;;11.90;99.90;;;;;;5039543;28;20119;-44
2024/04/04 09:34:46;;;;;;;4.28;1.13;;;12.00;99.90;;;;;;5052125;28;20040;-48
2024/04/04 09:37:16;;;;;;;7.30;1.08;;;12.00;99.90;;;;;;5052012;28;20385;-48
2024/04/04 09:39:42;;;;;;;6.80;1.00;;;12.10;99.90;;;;;;5055197;28;20477;-46
2024/04/04 09:42:09;;;;;;;13.90;1.73;;;12.20;99.90;;;;;;5058747;28;20033;-44
2024/04/04 09:44:37;;;;;;;7.90;1.15;;;12.50;99.90;;;;;;5058746;28;20421;-44
2024/04/04 09:47:04;;;;;;;8.70;1.20;;;12.80;99.90;;;;;;5058783;28;20415;-45
2024/04/04 09:49:31;;;;;;;6.10;1.75;;;12.90;99.90;;;;;;5058024;28;20025;-47
2024/04/04 09:51:59;;;;;;;5.35;1.42;;;13.10;99.90;;;;;;5058090;28;20060;-45
2024/04/04 09:54:25;;;;;;;10.13;1.98;;;13.20;99.90;;;;;;5057173;28;20035;-43
2024/04/04 09:56:52;;;;;;;4.15;1.60;;;13.30;99.90;;;;;;5058457;28;20013;-46
2024/04/04 09:59:29;;;;;;;3.05;1.10;;;13.30;99.90;;;;;;5056811;28;20037;-44
2024/04/04 10:02:05;;;;;;;10.52;1.30;;;13.40;99.90;;;;;;5047114;28;20072;-45
2024/04/04 10:04:37;;;;;;;2.83;0.82;;;13.50;99.90;;;;;;5057765;28;20429;-46
2024/04/04 10:07:04;;;;;;;4.63;1.27;;;13.50;99.90;;;;;;5057815;28;20060;-50
2024/04/04 10:09:38;;;;;;;2.80;0.93;;;13.70;99.90;;;;;;5058336;28;20120;-44
2024/04/04 10:12:09;;;;;;;10.18;2.25;;;13.90;99.90;;;;;;5058265;28;20474;-47
2024/04/04 10:14:36;;;;;;;9.30;0.90;;;14.00;99.90;;;;;;5057080;28;20021;-49
2024/04/04 10:17:06;;;;;;;5.35;1.60;;;14.10;99.90;;;;;;5056751;28;20025;-33
2024/04/04 10:19:35;;;;;;;9.43;0.90;;;14.30;99.90;;;;;;5055150;28;20051;-35
2024/04/04 10:22:03;;;;;;;6.10;1.55;;;14.40;99.90;;;;;;5057244;28;20029;-42
2024/04/04 10:24:31;;;;;;;6.47;0.77;;;14.60;99.90;;;;;;5057115;28;20025;-47
2024/04/04 10:27:03;;;;;;;4.22;0.90;;;14.70;99.90;;;;;;5057947;28;20497;-47
2024/04/04 10:29:30;;;;;;;2.67;0.60;;;14.60;99.90;;;;;;5049322;28;20087;-49
2024/04/04 10:31:57;;;;;;;6.45;0.80;;;14.40;99.90;;;;;;5053839;28;20033;-47
2024/04/04 10:34:22;;;;;;;6.13;1.00;;;14.30;99.90;;;;;;5056856;28;20488;-46
2024/04/04 10:36:48;;;;;;;6.15;0.75;;;14.40;99.90;;;;;;5058371;28;20040;-45
2024/04/04 10:39:21;;;;;;;3.80;0.70;;;14.50;99.90;;;;;;5056892;28;20032;-47
2024/04/04 10:41:49;;;;;;;9.70;0.68;;;14.60;99.90;;;;;;5058167;28;20047;-48
2024/04/04 10:44:16;;;;;;;3.85;0.80;;;14.80;99.90;;;;;;5057846;28;20017;-48
2024/04/04 10:46:49;;;;;;;1.48;0.75;;;15.00;99.90;;;;;;5057492;28;20052;-49
2024/04/04 10:49:18;;;;;;;5.22;0.95;;;15.20;99.90;;;;;;5057666;28;20020;-48
2024/04/04 10:51:51;;;;;;;3.83;0.60;;;15.30;99.90;;;;;;5055104;28;20138;-46
2024/04/04 10:54:19;;;;;;;8.77;1.17;;;15.20;99.90;;;;;;5053915;28;20017;-52
2024/04/04 10:56:45;;;;;;;;;;;15.50;99.90;;;;;;5054785;28;20025;-51
2024/04/04 10:59:15;;;;;;;5.43;0.68;;;15.60;99.90;;;;;;5055321;28;20290;-48
2024/04/04 11:01:40;;;;;;;5.68;1.05;;;15.60;99.90;;;;;;5053862;28;20029;-53
2024/04/04 11:04:10;;;;;;;4.63;0.75;;;15.60;99.90;;;;;;5051284;28;20036;-48
2024/04/04 11:06:36;;;;;;;9.93;0.80;;;15.60;99.90;;;;;;5054287;28;20112;-51
2024/04/04 11:09:10;;;;;;;6.75;0.80;;;15.70;99.90;;;;;;5052984;28;20500;-37
2024/04/04 11:14:24;;;;;;;2.88;0.60;;;15.90;99.90;;;;;;5041092;28;20147;-38
2024/04/04 11:16:54;;;;;;;3.47;0.90;;;16.10;99.90;;;;;;5053848;28;20049;-38
2024/04/04 11:19:24;;;;;;;12.27;1.35;;;16.20;99.90;;;;;;5054663;28;20112;-36
2024/04/04 11:21:50;;;;;;;4.45;1.38;;;16.10;99.90;;;;;;5052915;28;20021;-35
2024/04/04 11:24:19;;;;;;;14.63;1.98;;;15.90;99.90;;;;;;5053605;28;20029;-38
2024/04/04 11:26:45;;;;;;;7.47;0.82;;;15.80;99.90;;;;;;5036917;28;20212;-36
2024/04/04 11:29:11;;;;;;;6.35;1.10;;;15.90;99.90;;;;;;5049409;28;20114;-37
2024/04/04 11:31:37;;;;;;;5.60;1.35;;;15.90;99.90;;;;;;5053838;28;20028;-36
2024/04/04 11:34:03;;;;;;;10.52;1.25;;;15.80;99.90;;;;;;5054036;28;20029;-37
2024/04/04 11:36:29;;;;;;;8.02;0.98;;;15.50;99.90;;;;;;5054060;28;20062;-35
2024/04/04 11:38:56;;;;;;;12.80;1.55;;;15.50;99.90;;;;;;5054031;28;20441;-39
2024/04/04 11:41:23;;;;;;;16.50;1.40;;;15.60;99.90;;;;;;5052707;28;20021;-36
2024/04/04 11:43:48;;;;;;;9.18;1.60;;;15.70;99.90;;;;;;5053935;28;20031;-37
2024/04/04 11:46:15;;;;;;;8.75;1.48;;;15.80;99.90;;;;;;5054230;28;20021;-39
2024/04/04 11:48:41;;;;;;;11.30;1.33;;;15.70;99.90;;;;;;5053711;28;20024;-36
2024/04/04 11:51:08;;;;;;;5.82;1.50;;;15.50;99.90;;;;;;5041254;28;20033;-36
2024/04/04 11:53:33;;;;;;;11.15;1.05;;;15.30;99.90;;;;;;5033673;28;20034;-37
2024/04/04 11:55:59;;;;;;;11.48;1.52;;;15.20;99.90;;;;;;5034017;28;20481;-40
2024/04/04 11:58:27;;;;;;;11.40;1.35;;;15.20;99.90;;;;;;5033582;28;20033;-38
2024/04/04 12:00:54;;;;;;;9.90;1.75;;;15.00;99.90;;;;;;5033678;28;20029;-40
2024/04/04 12:03:19;;;;;;;8.93;1.38;;;14.80;99.90;;;;;;5033016;28;20103;-39
2024/04/04 12:05:45;;;;;;;9.25;1.02;;;14.80;99.90;;;;;;5032350;28;20061;-38
2024/04/04 12:08:11;;;;;;;13.15;1.45;;;14.70;99.90;;;;;;5033543;28;20030;-38
2024/04/04 12:10:36;;;;;;;16.05;1.63;;;14.90;99.90;;;;;;5033492;28;20521;-41
2024/04/04 12:13:02;;;;;;;10.77;1.45;;;15.20;99.90;;;;;;5033444;28;20032;-39
2024/04/04 12:15:29;;;;;;;18.55;2.58;;;15.50;99.90;;;;;;5035551;28;20379;-40
2024/04/04 12:20:39;;;;;;;9.45;1.92;;;15.80;99.90;;;;;;5053260;28;20524;-41
2024/04/04 12:23:04;;;;;;;5.90;1.05;;;16.00;99.90;;;;;;5053261;28;20025;-44
2024/04/04 12:25:30;;;;;;;10.68;1.30;;;16.20;99.90;;;;;;5052845;28;20520;-41
2024/04/04 12:27:56;;;;;;;12.00;1.52;;;16.00;99.90;;;;;;5053130;28;20111;-56
2024/04/04 12:30:21;;;;;;;4.18;1.42;;;15.90;99.90;;;;;;5053288;28;20386;-40
2024/04/04 12:32:47;;;;;;;18.75;1.50;;;15.80;99.90;;;;;;5052871;28;20394;-47
2024/04/04 12:35:13;;;;;;;11.93;2.05;;;15.90;99.90;;;;;;5052838;28;20105;-42
2024/04/04 12:37:38;;;;;;;9.70;1.42;;;15.90;99.90;;;;;;5052743;28;20029;-42
2024/04/04 12:40:05;;;;;;;11.93;1.17;;;15.90;99.90;;;;;;5053075;28;20096;-41
2024/04/04 12:42:31;;;;;;;11.93;1.85;;;16.20;99.90;;;;;;5053125;28;20441;-45
2024/04/04 12:44:57;;;;;;;15.68;1.58;;;16.30;99.90;;;;;;5052850;28;20101;-40
2024/04/04 12:47:23;;;;;;;20.20;2.25;;;16.40;99.90;;;;;;5053030;28;20021;-45